sensor_id;sensor_type;location;lat;lon;timestamp;P1;durP1;ratioP1;P2;durP2;ratioP2
64060;SDS011;60147;55.036;73.242;2023-02-04T00:00:29;41.50;;;16.85;;
64060;SDS011;60147;55.036;73.242;2023-02-04T00:02:55;37.25;;;15.13;;
64060;SDS011;60147;55.036;73.242;2023-02-04T00:05:21;36.75;;;15.10;;
64060;SDS011;60147;55.036;73.242;2023-02-04T00:07:57;40.35;;;16.00;;
64060;SDS011;60147;55.036;73.242;2023-02-04T00:10:22;32.47;;;15.50;;
64060;SDS011;60147;55.036;73.242;2023-02-04T00:12:53;36.58;;;15.60;;
64060;SDS011;60147;55.036;73.242;2023-02-04T00:15:19;33.28;;;15.75;;
64060;SDS011;60147;55.036;73.242;2023-02-04T00:17:53;37.80;;;16.95;;
64060;SDS011;60147;55.036;73.242;2023-02-04T00:20:19;38.22;;;16.88;;
64060;SDS011;60147;55.036;73.242;2023-02-04T00:22:45;47.67;;;18.80;;
64060;SDS011;60147;55.036;73.242;2023-02-04T00:25:20;40.95;;;19.17;;
64060;SDS011;60147;55.036;73.242;2023-02-04T00:27:56;49.00;;;21.60;;
64060;SDS011;60147;55.036;73.242;2023-02-04T00:30:24;43.67;;;18.67;;
64060;SDS011;60147;55.036;73.242;2023-02-04T00:32:57;47.83;;;18.95;;
64060;SDS011;60147;55.036;73.242;2023-02-04T00:35:23;40.85;;;17.75;;
64060;SDS011;60147;55.036;73.242;2023-02-04T00:37:51;37.92;;;18.15;;
64060;SDS011;60147;55.036;73.242;2023-02-04T00:40:17;41.00;;;18.38;;
64060;SDS011;60147;55.036;73.242;2023-02-04T00:42:43;45.25;;;18.48;;
64060;SDS011;60147;55.036;73.242;2023-02-04T00:45:09;47.15;;;19.13;;
64060;SDS011;60147;55.036;73.242;2023-02-04T00:47:42;46.83;;;19.35;;
64060;SDS011;60147;55.036;73.242;2023-02-04T00:50:08;42.92;;;18.33;;
64060;SDS011;60147;55.036;73.242;2023-02-04T00:52:34;37.67;;;16.60;;
64060;SDS011;60147;55.036;73.242;2023-02-04T00:55:01;41.83;;;18.27;;
64060;SDS011;60147;55.036;73.242;2023-02-04T00:57:27;42.80;;;18.65;;
64060;SDS011;60147;55.036;73.242;2023-02-04T00:59:53;37.15;;;16.95;;
64060;SDS011;60147;55.036;73.242;2023-02-04T01:02:19;41.10;;;17.60;;
64060;SDS011;60147;55.036;73.242;2023-02-04T01:04:50;37.55;;;16.63;;
64060;SDS011;60147;55.036;73.242;2023-02-04T01:07:16;40.33;;;17.30;;
64060;SDS011;60147;55.036;73.242;2023-02-04T01:09:47;46.55;;;20.08;;
64060;SDS011;60147;55.036;73.242;2023-02-04T01:12:18;42.90;;;18.35;;
64060;SDS011;60147;55.036;73.242;2023-02-04T01:14:48;43.67;;;17.52;;
64060;SDS011;60147;55.036;73.242;2023-02-04T01:17:19;41.40;;;17.63;;
64060;SDS011;60147;55.036;73.242;2023-02-04T01:19:45;40.22;;;19.00;;
64060;SDS011;60147;55.036;73.242;2023-02-04T01:22:11;36.92;;;17.30;;
64060;SDS011;60147;55.036;73.242;2023-02-04T01:24:37;35.03;;;16.95;;
64060;SDS011;60147;55.036;73.242;2023-02-04T01:27:21;42.72;;;18.02;;
64060;SDS011;60147;55.036;73.242;2023-02-04T01:29:47;42.17;;;18.05;;
64060;SDS011;60147;55.036;73.242;2023-02-04T01:32:13;43.95;;;18.88;;
64060;SDS011;60147;55.036;73.242;2023-02-04T01:34:49;41.45;;;18.60;;
64060;SDS011;60147;55.036;73.242;2023-02-04T01:37:16;44.70;;;19.58;;
64060;SDS011;60147;55.036;73.242;2023-02-04T01:39:51;39.85;;;19.27;;
64060;SDS011;60147;55.036;73.242;2023-02-04T01:42:17;38.30;;;18.02;;
64060;SDS011;60147;55.036;73.242;2023-02-04T01:44:45;44.25;;;20.58;;
64060;SDS011;60147;55.036;73.242;2023-02-04T01:47:21;42.83;;;19.10;;
64060;SDS011;60147;55.036;73.242;2023-02-04T01:49:48;62.03;;;24.52;;
64060;SDS011;60147;55.036;73.242;2023-02-04T01:52:26;97.95;;;35.67;;
64060;SDS011;60147;55.036;73.242;2023-02-04T01:54:57;80.47;;;30.50;;
64060;SDS011;60147;55.036;73.242;2023-02-04T01:57:23;48.78;;;20.55;;
64060;SDS011;60147;55.036;73.242;2023-02-04T01:59:49;42.90;;;20.20;;
64060;SDS011;60147;55.036;73.242;2023-02-04T02:05:03;44.95;;;19.40;;
64060;SDS011;60147;55.036;73.242;2023-02-04T02:07:29;45.20;;;20.05;;
64060;SDS011;60147;55.036;73.242;2023-02-04T02:10:00;36.28;;;18.30;;
64060;SDS011;60147;55.036;73.242;2023-02-04T02:12:28;46.03;;;20.25;;
64060;SDS011;60147;55.036;73.242;2023-02-04T02:14:54;43.53;;;22.35;;
64060;SDS011;60147;55.036;73.242;2023-02-04T02:17:30;44.10;;;20.77;;
64060;SDS011;60147;55.036;73.242;2023-02-04T02:20:06;43.10;;;23.88;;
64060;SDS011;60147;55.036;73.242;2023-02-04T02:22:35;42.30;;;24.00;;
64060;SDS011;60147;55.036;73.242;2023-02-04T02:25:07;42.15;;;21.98;;
64060;SDS011;60147;55.036;73.242;2023-02-04T02:27:33;35.45;;;22.48;;
64060;SDS011;60147;55.036;73.242;2023-02-04T02:29:58;46.03;;;27.17;;
64060;SDS011;60147;55.036;73.242;2023-02-04T02:32:24;46.28;;;31.58;;
64060;SDS011;60147;55.036;73.242;2023-02-04T02:34:51;47.47;;;30.73;;
64060;SDS011;60147;55.036;73.242;2023-02-04T02:37:28;50.60;;;32.33;;
64060;SDS011;60147;55.036;73.242;2023-02-04T02:40:05;39.78;;;20.25;;
64060;SDS011;60147;55.036;73.242;2023-02-04T02:42:41;52.58;;;32.38;;
64060;SDS011;60147;55.036;73.242;2023-02-04T02:45:18;43.60;;;25.23;;
64060;SDS011;60147;55.036;73.242;2023-02-04T02:47:50;41.97;;;17.83;;
64060;SDS011;60147;55.036;73.242;2023-02-04T02:50:18;49.10;;;27.30;;
64060;SDS011;60147;55.036;73.242;2023-02-04T02:52:54;48.08;;;26.85;;
64060;SDS011;60147;55.036;73.242;2023-02-04T02:55:21;48.90;;;27.90;;
64060;SDS011;60147;55.036;73.242;2023-02-04T02:57:48;38.05;;;23.17;;
64060;SDS011;60147;55.036;73.242;2023-02-04T03:00:15;36.63;;;17.98;;
64060;SDS011;60147;55.036;73.242;2023-02-04T03:03:04;42.92;;;22.95;;
64060;SDS011;60147;55.036;73.242;2023-02-04T03:05:38;44.10;;;23.40;;
64060;SDS011;60147;55.036;73.242;2023-02-04T03:08:07;38.00;;;22.57;;
64060;SDS011;60147;55.036;73.242;2023-02-04T03:10:39;48.35;;;30.65;;
64060;SDS011;60147;55.036;73.242;2023-02-04T03:13:06;38.40;;;25.25;;
64060;SDS011;60147;55.036;73.242;2023-02-04T03:15:32;45.83;;;29.50;;
64060;SDS011;60147;55.036;73.242;2023-02-04T03:18:17;44.30;;;25.58;;
64060;SDS011;60147;55.036;73.242;2023-02-04T03:20:46;32.17;;;14.10;;
64060;SDS011;60147;55.036;73.242;2023-02-04T03:23:13;35.83;;;19.77;;
64060;SDS011;60147;55.036;73.242;2023-02-04T03:25:40;42.10;;;20.63;;
64060;SDS011;60147;55.036;73.242;2023-02-04T03:28:06;28.90;;;13.77;;
64060;SDS011;60147;55.036;73.242;2023-02-04T03:30:32;26.13;;;13.68;;
64060;SDS011;60147;55.036;73.242;2023-02-04T03:32:58;43.30;;;29.63;;
64060;SDS011;60147;55.036;73.242;2023-02-04T03:35:24;37.08;;;15.60;;
64060;SDS011;60147;55.036;73.242;2023-02-04T03:38:00;30.85;;;14.02;;
64060;SDS011;60147;55.036;73.242;2023-02-04T03:42:56;30.40;;;13.60;;
64060;SDS011;60147;55.036;73.242;2023-02-04T03:45:22;42.08;;;24.95;;
64060;SDS011;60147;55.036;73.242;2023-02-04T03:47:48;31.70;;;15.95;;
64060;SDS011;60147;55.036;73.242;2023-02-04T03:50:24;34.92;;;15.15;;
64060;SDS011;60147;55.036;73.242;2023-02-04T03:52:58;45.97;;;16.30;;
64060;SDS011;60147;55.036;73.242;2023-02-04T03:55:25;38.08;;;14.98;;
64060;SDS011;60147;55.036;73.242;2023-02-04T03:57:56;39.67;;;16.45;;
64060;SDS011;60147;55.036;73.242;2023-02-04T04:00:22;37.10;;;15.13;;
64060;SDS011;60147;55.036;73.242;2023-02-04T04:02:52;46.67;;;20.37;;
64060;SDS011;60147;55.036;73.242;2023-02-04T04:05:22;102.80;;;46.63;;
64060;SDS011;60147;55.036;73.242;2023-02-04T04:07:48;71.78;;;35.78;;
64060;SDS011;60147;55.036;73.242;2023-02-04T04:10:14;56.08;;;24.33;;
64060;SDS011;60147;55.036;73.242;2023-02-04T04:12:39;50.33;;;22.52;;
64060;SDS011;60147;55.036;73.242;2023-02-04T04:15:05;85.10;;;33.10;;
64060;SDS011;60147;55.036;73.242;2023-02-04T04:17:32;54.65;;;29.55;;
64060;SDS011;60147;55.036;73.242;2023-02-04T04:20:08;66.15;;;28.90;;
64060;SDS011;60147;55.036;73.242;2023-02-04T04:22:39;76.97;;;29.00;;
64060;SDS011;60147;55.036;73.242;2023-02-04T04:25:05;67.88;;;26.73;;
64060;SDS011;60147;55.036;73.242;2023-02-04T04:27:36;71.05;;;28.90;;
64060;SDS011;60147;55.036;73.242;2023-02-04T04:30:07;70.18;;;26.20;;
64060;SDS011;60147;55.036;73.242;2023-02-04T04:32:43;79.55;;;30.60;;
64060;SDS011;60147;55.036;73.242;2023-02-04T04:35:09;63.33;;;24.60;;
64060;SDS011;60147;55.036;73.242;2023-02-04T04:37:35;48.10;;;25.88;;
64060;SDS011;60147;55.036;73.242;2023-02-04T04:40:01;61.25;;;25.80;;
64060;SDS011;60147;55.036;73.242;2023-02-04T04:42:27;56.95;;;26.75;;
64060;SDS011;60147;55.036;73.242;2023-02-04T04:44:53;48.83;;;26.95;;
64060;SDS011;60147;55.036;73.242;2023-02-04T04:47:19;52.08;;;26.35;;
64060;SDS011;60147;55.036;73.242;2023-02-04T04:49:44;55.38;;;26.13;;
64060;SDS011;60147;55.036;73.242;2023-02-04T04:52:10;49.33;;;23.02;;
64060;SDS011;60147;55.036;73.242;2023-02-04T04:54:36;59.50;;;21.85;;
64060;SDS011;60147;55.036;73.242;2023-02-04T04:57:12;52.25;;;25.08;;
64060;SDS011;60147;55.036;73.242;2023-02-04T04:59:38;49.55;;;24.02;;
64060;SDS011;60147;55.036;73.242;2023-02-04T05:02:04;41.15;;;16.55;;
64060;SDS011;60147;55.036;73.242;2023-02-04T05:04:39;46.13;;;20.55;;
64060;SDS011;60147;55.036;73.242;2023-02-04T05:07:09;40.40;;;16.10;;
64060;SDS011;60147;55.036;73.242;2023-02-04T05:09:34;42.97;;;21.65;;
64060;SDS011;60147;55.036;73.242;2023-02-04T05:12:00;42.08;;;20.65;;
64060;SDS011;60147;55.036;73.242;2023-02-04T05:14:27;43.85;;;24.10;;
64060;SDS011;60147;55.036;73.242;2023-02-04T05:16:56;37.05;;;18.70;;
64060;SDS011;60147;55.036;73.242;2023-02-04T05:19:27;42.10;;;21.20;;
64060;SDS011;60147;55.036;73.242;2023-02-04T05:21:53;47.88;;;21.23;;
64060;SDS011;60147;55.036;73.242;2023-02-04T05:24:28;37.53;;;17.25;;
64060;SDS011;60147;55.036;73.242;2023-02-04T05:27:04;40.28;;;20.77;;
64060;SDS011;60147;55.036;73.242;2023-02-04T05:29:30;42.97;;;21.52;;
64060;SDS011;60147;55.036;73.242;2023-02-04T05:31:56;36.05;;;15.10;;
64060;SDS011;60147;55.036;73.242;2023-02-04T05:34:21;37.47;;;16.58;;
64060;SDS011;60147;55.036;73.242;2023-02-04T05:36:48;31.13;;;15.52;;
64060;SDS011;60147;55.036;73.242;2023-02-04T05:39:13;31.20;;;14.95;;
64060;SDS011;60147;55.036;73.242;2023-02-04T05:41:39;39.47;;;18.40;;
64060;SDS011;60147;55.036;73.242;2023-02-04T05:44:10;36.78;;;19.92;;
64060;SDS011;60147;55.036;73.242;2023-02-04T05:46:37;38.30;;;17.50;;
64060;SDS011;60147;55.036;73.242;2023-02-04T05:49:04;35.25;;;19.20;;
64060;SDS011;60147;55.036;73.242;2023-02-04T05:51:40;37.00;;;18.48;;
64060;SDS011;60147;55.036;73.242;2023-02-04T05:54:17;42.05;;;19.02;;
64060;SDS011;60147;55.036;73.242;2023-02-04T05:56:45;35.72;;;16.73;;
64060;SDS011;60147;55.036;73.242;2023-02-04T05:59:11;32.80;;;18.23;;
64060;SDS011;60147;55.036;73.242;2023-02-04T06:01:37;37.17;;;17.92;;
64060;SDS011;60147;55.036;73.242;2023-02-04T06:04:14;36.58;;;16.70;;
64060;SDS011;60147;55.036;73.242;2023-02-04T06:06:41;30.73;;;15.35;;
64060;SDS011;60147;55.036;73.242;2023-02-04T06:09:07;33.47;;;16.27;;
64060;SDS011;60147;55.036;73.242;2023-02-04T06:11:33;35.25;;;16.80;;
64060;SDS011;60147;55.036;73.242;2023-02-04T06:14:12;31.80;;;16.65;;
64060;SDS011;60147;55.036;73.242;2023-02-04T06:16:38;33.25;;;15.48;;
64060;SDS011;60147;55.036;73.242;2023-02-04T06:19:04;37.45;;;18.17;;
64060;SDS011;60147;55.036;73.242;2023-02-04T06:21:30;33.58;;;16.23;;
64060;SDS011;60147;55.036;73.242;2023-02-04T06:23:56;37.47;;;16.60;;
64060;SDS011;60147;55.036;73.242;2023-02-04T06:26:25;31.60;;;15.45;;
64060;SDS011;60147;55.036;73.242;2023-02-04T06:28:51;34.40;;;18.17;;
64060;SDS011;60147;55.036;73.242;2023-02-04T06:31:17;32.42;;;16.98;;
64060;SDS011;60147;55.036;73.242;2023-02-04T06:36:27;37.03;;;17.13;;
64060;SDS011;60147;55.036;73.242;2023-02-04T06:38:53;35.95;;;17.02;;
64060;SDS011;60147;55.036;73.242;2023-02-04T06:41:26;49.35;;;18.98;;
64060;SDS011;60147;55.036;73.242;2023-02-04T06:43:57;42.15;;;19.00;;
64060;SDS011;60147;55.036;73.242;2023-02-04T06:46:32;41.10;;;17.48;;
64060;SDS011;60147;55.036;73.242;2023-02-04T06:48:58;37.70;;;17.30;;
64060;SDS011;60147;55.036;73.242;2023-02-04T06:51:34;39.25;;;16.48;;
64060;SDS011;60147;55.036;73.242;2023-02-04T06:54:00;44.33;;;17.05;;
64060;SDS011;60147;55.036;73.242;2023-02-04T06:56:25;34.08;;;13.80;;
64060;SDS011;60147;55.036;73.242;2023-02-04T06:58:54;36.55;;;15.75;;
64060;SDS011;60147;55.036;73.242;2023-02-04T07:01:19;38.53;;;16.00;;
64060;SDS011;60147;55.036;73.242;2023-02-04T07:03:45;40.88;;;17.40;;
64060;SDS011;60147;55.036;73.242;2023-02-04T07:06:21;39.95;;;16.08;;
64060;SDS011;60147;55.036;73.242;2023-02-04T07:08:47;38.80;;;15.93;;
64060;SDS011;60147;55.036;73.242;2023-02-04T07:11:24;31.35;;;15.18;;
64060;SDS011;60147;55.036;73.242;2023-02-04T07:13:49;31.73;;;14.77;;
64060;SDS011;60147;55.036;73.242;2023-02-04T07:16:25;38.03;;;16.15;;
64060;SDS011;60147;55.036;73.242;2023-02-04T07:18:51;39.42;;;15.23;;
64060;SDS011;60147;55.036;73.242;2023-02-04T07:21:17;42.40;;;16.63;;
64060;SDS011;60147;55.036;73.242;2023-02-04T07:23:43;38.25;;;16.33;;
64060;SDS011;60147;55.036;73.242;2023-02-04T07:26:09;45.10;;;16.73;;
64060;SDS011;60147;55.036;73.242;2023-02-04T07:28:34;55.05;;;18.65;;
64060;SDS011;60147;55.036;73.242;2023-02-04T07:31:01;48.47;;;17.23;;
64060;SDS011;60147;55.036;73.242;2023-02-04T07:33:27;56.45;;;17.40;;
64060;SDS011;60147;55.036;73.242;2023-02-04T07:35:54;66.18;;;19.23;;
64060;SDS011;60147;55.036;73.242;2023-02-04T07:38:26;58.50;;;17.80;;
64060;SDS011;60147;55.036;73.242;2023-02-04T07:41:01;65.93;;;18.63;;
64060;SDS011;60147;55.036;73.242;2023-02-04T07:43:32;78.05;;;19.52;;
64060;SDS011;60147;55.036;73.242;2023-02-04T07:45:58;84.20;;;20.13;;
64060;SDS011;60147;55.036;73.242;2023-02-04T07:48:24;62.53;;;20.77;;
64060;SDS011;60147;55.036;73.242;2023-02-04T07:50:50;56.40;;;18.67;;
64060;SDS011;60147;55.036;73.242;2023-02-04T07:53:16;46.03;;;13.73;;
64060;SDS011;60147;55.036;73.242;2023-02-04T07:58:13;27.77;;;11.73;;
64060;SDS011;60147;55.036;73.242;2023-02-04T08:00:38;48.83;;;16.63;;
64060;SDS011;60147;55.036;73.242;2023-02-04T08:03:04;46.90;;;18.73;;
64060;SDS011;60147;55.036;73.242;2023-02-04T08:05:30;39.05;;;17.80;;
64060;SDS011;60147;55.036;73.242;2023-02-04T08:07:58;42.58;;;17.45;;
64060;SDS011;60147;55.036;73.242;2023-02-04T08:10:26;43.70;;;17.55;;
64060;SDS011;60147;55.036;73.242;2023-02-04T08:12:52;41.08;;;16.40;;
64060;SDS011;60147;55.036;73.242;2023-02-04T08:15:28;35.78;;;15.38;;
64060;SDS011;60147;55.036;73.242;2023-02-04T08:17:54;39.15;;;16.33;;
64060;SDS011;60147;55.036;73.242;2023-02-04T08:20:20;41.72;;;17.05;;
64060;SDS011;60147;55.036;73.242;2023-02-04T08:22:46;39.05;;;16.80;;
64060;SDS011;60147;55.036;73.242;2023-02-04T08:25:17;40.05;;;15.65;;
64060;SDS011;60147;55.036;73.242;2023-02-04T08:27:43;41.63;;;16.52;;
64060;SDS011;60147;55.036;73.242;2023-02-04T08:30:14;47.08;;;17.75;;
64060;SDS011;60147;55.036;73.242;2023-02-04T08:32:52;45.53;;;17.80;;
64060;SDS011;60147;55.036;73.242;2023-02-04T08:35:18;45.50;;;17.25;;
64060;SDS011;60147;55.036;73.242;2023-02-04T08:37:45;48.65;;;17.58;;
64060;SDS011;60147;55.036;73.242;2023-02-04T08:40:20;48.00;;;17.27;;
64060;SDS011;60147;55.036;73.242;2023-02-04T08:42:58;53.90;;;19.58;;
64060;SDS011;60147;55.036;73.242;2023-02-04T08:45:24;35.90;;;16.05;;
64060;SDS011;60147;55.036;73.242;2023-02-04T08:47:50;42.45;;;17.92;;
64060;SDS011;60147;55.036;73.242;2023-02-04T08:50:15;48.42;;;19.40;;
64060;SDS011;60147;55.036;73.242;2023-02-04T08:55:16;44.08;;;16.92;;
64060;SDS011;60147;55.036;73.242;2023-02-04T08:57:42;42.45;;;16.33;;
64060;SDS011;60147;55.036;73.242;2023-02-04T09:00:12;38.92;;;17.08;;
64060;SDS011;60147;55.036;73.242;2023-02-04T09:02:38;35.95;;;16.85;;
64060;SDS011;60147;55.036;73.242;2023-02-04T09:05:15;40.08;;;16.48;;
64060;SDS011;60147;55.036;73.242;2023-02-04T09:07:43;37.03;;;15.07;;
64060;SDS011;60147;55.036;73.242;2023-02-04T09:10:09;40.53;;;15.95;;
64060;SDS011;60147;55.036;73.242;2023-02-04T09:12:35;41.90;;;18.13;;
64060;SDS011;60147;55.036;73.242;2023-02-04T09:15:01;37.65;;;16.85;;
64060;SDS011;60147;55.036;73.242;2023-02-04T09:17:27;33.00;;;14.90;;
64060;SDS011;60147;55.036;73.242;2023-02-04T09:19:53;44.25;;;14.73;;
64060;SDS011;60147;55.036;73.242;2023-02-04T09:22:19;35.83;;;13.23;;
64060;SDS011;60147;55.036;73.242;2023-02-04T09:24:53;41.33;;;16.63;;
64060;SDS011;60147;55.036;73.242;2023-02-04T09:27:18;37.33;;;14.95;;
64060;SDS011;60147;55.036;73.242;2023-02-04T09:29:44;37.97;;;15.02;;
64060;SDS011;60147;55.036;73.242;2023-02-04T09:32:10;31.67;;;12.57;;
64060;SDS011;60147;55.036;73.242;2023-02-04T09:34:46;31.20;;;13.43;;
64060;SDS011;60147;55.036;73.242;2023-02-04T09:37:12;29.52;;;13.75;;
64060;SDS011;60147;55.036;73.242;2023-02-04T09:39:43;29.42;;;15.10;;
64060;SDS011;60147;55.036;73.242;2023-02-04T09:42:35;32.55;;;14.80;;
64060;SDS011;60147;55.036;73.242;2023-02-04T09:45:01;37.42;;;15.02;;
64060;SDS011;60147;55.036;73.242;2023-02-04T09:47:27;36.97;;;16.35;;
64060;SDS011;60147;55.036;73.242;2023-02-04T09:49:54;29.00;;;15.10;;
64060;SDS011;60147;55.036;73.242;2023-02-04T09:52:29;35.17;;;15.35;;
64060;SDS011;60147;55.036;73.242;2023-02-04T09:54:57;34.95;;;14.98;;
64060;SDS011;60147;55.036;73.242;2023-02-04T09:57:27;26.98;;;12.05;;
64060;SDS011;60147;55.036;73.242;2023-02-04T10:00:05;26.80;;;11.68;;
64060;SDS011;60147;55.036;73.242;2023-02-04T10:02:42;29.27;;;13.52;;
64060;SDS011;60147;55.036;73.242;2023-02-04T10:05:12;30.52;;;14.70;;
64060;SDS011;60147;55.036;73.242;2023-02-04T10:07:49;23.65;;;12.27;;
64060;SDS011;60147;55.036;73.242;2023-02-04T10:10:16;28.98;;;12.48;;
64060;SDS011;60147;55.036;73.242;2023-02-04T10:12:49;227.13;;;63.40;;
64060;SDS011;60147;55.036;73.242;2023-02-04T10:15:16;43.60;;;18.65;;
64060;SDS011;60147;55.036;73.242;2023-02-04T10:18:07;34.92;;;15.52;;
64060;SDS011;60147;55.036;73.242;2023-02-04T10:20:42;31.40;;;12.60;;
64060;SDS011;60147;55.036;73.242;2023-02-04T10:25:39;32.03;;;13.35;;
64060;SDS011;60147;55.036;73.242;2023-02-04T10:28:09;30.03;;;12.93;;
64060;SDS011;60147;55.036;73.242;2023-02-04T10:30:45;35.67;;;14.57;;
64060;SDS011;60147;55.036;73.242;2023-02-04T10:33:19;34.95;;;14.85;;
64060;SDS011;60147;55.036;73.242;2023-02-04T10:35:52;30.80;;;12.50;;
64060;SDS011;60147;55.036;73.242;2023-02-04T10:38:18;34.95;;;15.35;;
64060;SDS011;60147;55.036;73.242;2023-02-04T10:40:47;31.27;;;15.95;;
64060;SDS011;60147;55.036;73.242;2023-02-04T10:43:22;28.30;;;13.75;;
64060;SDS011;60147;55.036;73.242;2023-02-04T10:45:56;30.33;;;14.52;;
64060;SDS011;60147;55.036;73.242;2023-02-04T10:48:22;30.90;;;14.82;;
64060;SDS011;60147;55.036;73.242;2023-02-04T10:50:49;31.20;;;13.88;;
64060;SDS011;60147;55.036;73.242;2023-02-04T10:53:17;37.17;;;15.35;;
64060;SDS011;60147;55.036;73.242;2023-02-04T10:56:03;35.53;;;15.02;;
64060;SDS011;60147;55.036;73.242;2023-02-04T10:58:39;31.63;;;13.55;;
64060;SDS011;60147;55.036;73.242;2023-02-04T11:01:10;32.03;;;15.10;;
64060;SDS011;60147;55.036;73.242;2023-02-04T11:03:47;33.60;;;16.13;;
64060;SDS011;60147;55.036;73.242;2023-02-04T11:06:14;44.75;;;18.88;;
64060;SDS011;60147;55.036;73.242;2023-02-04T11:08:52;34.70;;;16.33;;
64060;SDS011;60147;55.036;73.242;2023-02-04T11:11:30;35.28;;;15.25;;
64060;SDS011;60147;55.036;73.242;2023-02-04T11:13:58;36.10;;;14.77;;
64060;SDS011;60147;55.036;73.242;2023-02-04T11:16:26;41.55;;;16.75;;
64060;SDS011;60147;55.036;73.242;2023-02-04T11:19:04;39.03;;;16.83;;
64060;SDS011;60147;55.036;73.242;2023-02-04T11:26:40;39.40;;;18.15;;
64060;SDS011;60147;55.036;73.242;2023-02-04T11:31:56;203.95;;;67.25;;
64060;SDS011;60147;55.036;73.242;2023-02-04T11:37:12;212.95;;;65.75;;
64060;SDS011;60147;55.036;73.242;2023-02-04T11:39:39;157.52;;;53.38;;
64060;SDS011;60147;55.036;73.242;2023-02-04T11:44:51;87.97;;;33.65;;
64060;SDS011;60147;55.036;73.242;2023-02-04T11:47:18;61.28;;;26.58;;
64060;SDS011;60147;55.036;73.242;2023-02-04T11:49:46;63.70;;;26.25;;
64060;SDS011;60147;55.036;73.242;2023-02-04T11:52:33;82.38;;;32.85;;
64060;SDS011;60147;55.036;73.242;2023-02-04T11:54:59;96.57;;;39.17;;
64060;SDS011;60147;55.036;73.242;2023-02-04T12:00:30;78.90;;;29.85;;
64060;SDS011;60147;55.036;73.242;2023-02-04T12:03:16;65.10;;;26.70;;
64060;SDS011;60147;55.036;73.242;2023-02-04T12:05:45;74.78;;;25.20;;
64060;SDS011;60147;55.036;73.242;2023-02-04T12:13:23;139.52;;;46.30;;
64060;SDS011;60147;55.036;73.242;2023-02-04T12:16:08;162.10;;;52.25;;
64060;SDS011;60147;55.036;73.242;2023-02-04T12:18:35;190.20;;;60.60;;
64060;SDS011;60147;55.036;73.242;2023-02-04T12:21:01;183.23;;;61.65;;
64060;SDS011;60147;55.036;73.242;2023-02-04T12:23:29;183.43;;;64.15;;
64060;SDS011;60147;55.036;73.242;2023-02-04T12:25:55;185.05;;;67.70;;
64060;SDS011;60147;55.036;73.242;2023-02-04T12:28:21;180.70;;;65.47;;
64060;SDS011;60147;55.036;73.242;2023-02-04T12:30:57;219.18;;;73.07;;
64060;SDS011;60147;55.036;73.242;2023-02-04T12:33:23;195.18;;;66.90;;
64060;SDS011;60147;55.036;73.242;2023-02-04T12:35:49;167.82;;;59.47;;
64060;SDS011;60147;55.036;73.242;2023-02-04T12:38:15;131.00;;;50.35;;
64060;SDS011;60147;55.036;73.242;2023-02-04T12:40:41;130.18;;;48.00;;
64060;SDS011;60147;55.036;73.242;2023-02-04T12:43:07;132.65;;;53.03;;
64060;SDS011;60147;55.036;73.242;2023-02-04T12:45:40;128.65;;;50.90;;
64060;SDS011;60147;55.036;73.242;2023-02-04T12:48:10;144.00;;;55.15;;
64060;SDS011;60147;55.036;73.242;2023-02-04T12:50:37;139.57;;;55.88;;
64060;SDS011;60147;55.036;73.242;2023-02-04T12:53:08;141.40;;;58.30;;
64060;SDS011;60147;55.036;73.242;2023-02-04T12:55:44;136.30;;;53.05;;
64060;SDS011;60147;55.036;73.242;2023-02-04T12:58:10;154.60;;;56.35;;
64060;SDS011;60147;55.036;73.242;2023-02-04T13:00:36;137.50;;;53.63;;
64060;SDS011;60147;55.036;73.242;2023-02-04T13:03:12;141.25;;;57.35;;
64060;SDS011;60147;55.036;73.242;2023-02-04T13:05:38;126.47;;;49.90;;
64060;SDS011;60147;55.036;73.242;2023-02-04T13:08:14;102.40;;;41.42;;
64060;SDS011;60147;55.036;73.242;2023-02-04T13:10:45;122.15;;;48.15;;
64060;SDS011;60147;55.036;73.242;2023-02-04T13:13:17;124.28;;;46.72;;
64060;SDS011;60147;55.036;73.242;2023-02-04T13:15:44;132.10;;;49.28;;
64060;SDS011;60147;55.036;73.242;2023-02-04T13:18:20;111.72;;;44.85;;
64060;SDS011;60147;55.036;73.242;2023-02-04T13:20:46;107.38;;;43.05;;
64060;SDS011;60147;55.036;73.242;2023-02-04T13:23:12;81.28;;;32.03;;
64060;SDS011;60147;55.036;73.242;2023-02-04T13:25:38;148.77;;;51.60;;
64060;SDS011;60147;55.036;73.242;2023-02-04T13:28:14;162.20;;;58.13;;
64060;SDS011;60147;55.036;73.242;2023-02-04T13:30:40;194.90;;;64.13;;
64060;SDS011;60147;55.036;73.242;2023-02-04T13:33:06;181.38;;;60.47;;
64060;SDS011;60147;55.036;73.242;2023-02-04T13:35:32;175.18;;;63.67;;
64060;SDS011;60147;55.036;73.242;2023-02-04T13:38:01;162.00;;;57.63;;
64060;SDS011;60147;55.036;73.242;2023-02-04T13:40:31;170.27;;;60.72;;
64060;SDS011;60147;55.036;73.242;2023-02-04T13:42:57;138.57;;;50.65;;
64060;SDS011;60147;55.036;73.242;2023-02-04T13:45:23;103.38;;;36.72;;
64060;SDS011;60147;55.036;73.242;2023-02-04T13:47:49;156.30;;;52.92;;
64060;SDS011;60147;55.036;73.242;2023-02-04T13:50:15;137.90;;;50.70;;
64060;SDS011;60147;55.036;73.242;2023-02-04T13:52:41;139.48;;;50.22;;
64060;SDS011;60147;55.036;73.242;2023-02-04T13:55:16;107.85;;;40.88;;
64060;SDS011;60147;55.036;73.242;2023-02-04T13:57:42;88.57;;;35.55;;
64060;SDS011;60147;55.036;73.242;2023-02-04T14:00:18;56.88;;;21.65;;
64060;SDS011;60147;55.036;73.242;2023-02-04T14:02:44;47.40;;;19.48;;
64060;SDS011;60147;55.036;73.242;2023-02-04T14:05:10;78.25;;;27.75;;
64060;SDS011;60147;55.036;73.242;2023-02-04T14:07:36;69.65;;;25.13;;
64060;SDS011;60147;55.036;73.242;2023-02-04T14:10:12;83.30;;;28.35;;
64060;SDS011;60147;55.036;73.242;2023-02-04T14:12:38;122.70;;;43.50;;
64060;SDS011;60147;55.036;73.242;2023-02-04T14:15:06;115.03;;;45.00;;
64060;SDS011;60147;55.036;73.242;2023-02-04T14:17:32;130.65;;;48.20;;
64060;SDS011;60147;55.036;73.242;2023-02-04T14:19:58;140.80;;;52.95;;
64060;SDS011;60147;55.036;73.242;2023-02-04T14:22:29;163.65;;;62.08;;
64060;SDS011;60147;55.036;73.242;2023-02-04T14:24:59;169.90;;;62.60;;
64060;SDS011;60147;55.036;73.242;2023-02-04T14:27:25;169.88;;;66.90;;
64060;SDS011;60147;55.036;73.242;2023-02-04T14:29:52;185.10;;;71.00;;
64060;SDS011;60147;55.036;73.242;2023-02-04T14:32:17;180.38;;;70.97;;
64060;SDS011;60147;55.036;73.242;2023-02-04T14:34:50;177.93;;;71.05;;
64060;SDS011;60147;55.036;73.242;2023-02-04T14:37:16;179.18;;;72.32;;
64060;SDS011;60147;55.036;73.242;2023-02-04T14:39:47;177.10;;;69.00;;
64060;SDS011;60147;55.036;73.242;2023-02-04T14:42:13;170.98;;;70.30;;
64060;SDS011;60147;55.036;73.242;2023-02-04T14:44:39;174.07;;;70.22;;
64060;SDS011;60147;55.036;73.242;2023-02-04T14:47:10;160.25;;;62.70;;
64060;SDS011;60147;55.036;73.242;2023-02-04T14:49:37;160.77;;;64.63;;
64060;SDS011;60147;55.036;73.242;2023-02-04T14:52:13;153.05;;;60.33;;
64060;SDS011;60147;55.036;73.242;2023-02-04T14:54:39;140.98;;;58.22;;